sensor_id;sensor_type;location;lat;lon;timestamp;pressure;altitude;pressure_sealevel;temperature;humidity
75549;BME280;64133;56.002;37.208;2023-07-20T00:05:02;97684.52;;;11.87;80.07
75549;BME280;64133;56.002;37.208;2023-07-20T00:10:10;97678.91;;;11.81;80.06
75549;BME280;64133;56.002;37.208;2023-07-20T00:15:14;97679.41;;;11.81;80.08
75549;BME280;64133;56.002;37.208;2023-07-20T00:20:19;97690.81;;;11.77;80.42
75549;BME280;64133;56.002;37.208;2023-07-20T00:30:27;97689.33;;;11.75;80.52
75549;BME280;64133;56.002;37.208;2023-07-20T00:35:31;97689.35;;;11.71;80.58
75549;BME280;64133;56.002;37.208;2023-07-20T00:40:40;97709.19;;;11.67;80.75
75549;BME280;64133;56.002;37.208;2023-07-20T00:45:45;97708.70;;;11.63;80.95
75549;BME280;64133;56.002;37.208;2023-07-20T00:50:51;97702.47;;;11.56;81.09
75549;BME280;64133;56.002;37.208;2023-07-20T00:55:56;97705.59;;;11.60;81.20
75549;BME280;64133;56.002;37.208;2023-07-20T01:01:01;97717.29;;;11.57;81.23
75549;BME280;64133;56.002;37.208;2023-07-20T01:06:10;97711.06;;;11.54;81.33
75549;BME280;64133;56.002;37.208;2023-07-20T01:11:16;97714.36;;;11.52;81.34
75549;BME280;64133;56.002;37.208;2023-07-20T01:16:19;97717.33;;;11.49;81.51
75549;BME280;64133;56.002;37.208;2023-07-20T01:21:26;97713.07;;;11.44;81.80
75549;BME280;64133;56.002;37.208;2023-07-20T01:31:58;97719.02;;;11.46;81.77
75549;BME280;64133;56.002;37.208;2023-07-20T01:37:03;97715.07;;;11.42;81.82
75549;BME280;64133;56.002;37.208;2023-07-20T01:42:08;97710.47;;;11.36;81.92
75549;BME280;64133;56.002;37.208;2023-07-20T01:47:13;97713.10;;;11.36;82.08
75549;BME280;64133;56.002;37.208;2023-07-20T01:52:18;97710.83;;;11.32;82.16
75549;BME280;64133;56.002;37.208;2023-07-20T01:57:23;97710.16;;;11.30;82.00
75549;BME280;64133;56.002;37.208;2023-07-20T02:02:28;97710.65;;;11.34;82.26
75549;BME280;64133;56.002;37.208;2023-07-20T02:07:33;97708.48;;;11.42;82.11
75549;BME280;64133;56.002;37.208;2023-07-20T02:12:37;97710.90;;;11.51;81.97
75549;BME280;64133;56.002;37.208;2023-07-20T02:17:42;97705.42;;;11.57;81.65
75549;BME280;64133;56.002;37.208;2023-07-20T02:22:47;97703.43;;;11.63;81.49
75549;BME280;64133;56.002;37.208;2023-07-20T02:27:52;97709.13;;;11.71;81.26
75549;BME280;64133;56.002;37.208;2023-07-20T02:32:56;97717.53;;;11.74;81.18
75549;BME280;64133;56.002;37.208;2023-07-20T02:38:01;97719.80;;;11.81;80.99
75549;BME280;64133;56.002;37.208;2023-07-20T02:43:06;97719.95;;;11.88;80.77
75549;BME280;64133;56.002;37.208;2023-07-20T02:48:10;97724.70;;;11.93;80.70
75549;BME280;64133;56.002;37.208;2023-07-20T02:53:15;97740.17;;;12.00;80.63
75549;BME280;64133;56.002;37.208;2023-07-20T02:58:20;97740.14;;;12.04;80.36
75549;BME280;64133;56.002;37.208;2023-07-20T03:03:24;97741.92;;;12.12;80.24
75549;BME280;64133;56.002;37.208;2023-07-20T03:08:29;97747.98;;;12.16;80.34
75549;BME280;64133;56.002;37.208;2023-07-20T03:13:34;97748.70;;;12.33;79.84
75549;BME280;64133;56.002;37.208;2023-07-20T03:18:39;97743.31;;;12.22;79.67
75549;BME280;64133;56.002;37.208;2023-07-20T03:23:43;97749.73;;;12.28;79.85
75549;BME280;64133;56.002;37.208;2023-07-20T03:28:48;97751.50;;;12.54;79.53
75549;BME280;64133;56.002;37.208;2023-07-20T03:33:53;97762.84;;;12.78;78.87
75549;BME280;64133;56.002;37.208;2023-07-20T03:38:57;97757.53;;;12.97;78.31
75549;BME280;64133;56.002;37.208;2023-07-20T03:44:02;97753.67;;;13.22;77.91
75549;BME280;64133;56.002;37.208;2023-07-20T03:49:07;97758.78;;;13.39;77.24
75549;BME280;64133;56.002;37.208;2023-07-20T03:54:12;97750.31;;;13.69;76.39
75549;BME280;64133;56.002;37.208;2023-07-20T03:59:16;97743.80;;;13.86;76.02
75549;BME280;64133;56.002;37.208;2023-07-20T04:04:21;97750.91;;;14.11;75.37
75549;BME280;64133;56.002;37.208;2023-07-20T04:09:26;97756.39;;;14.42;74.82
75549;BME280;64133;56.002;37.208;2023-07-20T04:14:30;97759.86;;;14.74;73.91
75549;BME280;64133;56.002;37.208;2023-07-20T04:19:35;97766.23;;;15.08;72.84
75549;BME280;64133;56.002;37.208;2023-07-20T04:24:40;97755.12;;;15.43;71.96
75549;BME280;64133;56.002;37.208;2023-07-20T04:29:45;97755.06;;;15.71;71.28
75549;BME280;64133;56.002;37.208;2023-07-20T04:34:53;97765.56;;;15.93;70.46
75549;BME280;64133;56.002;37.208;2023-07-20T04:39:57;97766.75;;;15.77;70.74
75549;BME280;64133;56.002;37.208;2023-07-20T04:45:02;97766.45;;;15.82;70.30
75549;BME280;64133;56.002;37.208;2023-07-20T04:50:08;97747.74;;;15.39;70.64
75549;BME280;64133;56.002;37.208;2023-07-20T04:55:13;97777.16;;;15.61;70.57
75549;BME280;64133;56.002;37.208;2023-07-20T05:06:11;97784.09;;;15.62;70.59
75549;BME280;64133;56.002;37.208;2023-07-20T05:11:15;97790.19;;;15.91;69.30
75549;BME280;64133;56.002;37.208;2023-07-20T05:16:20;97786.77;;;16.03;68.59
75549;BME280;64133;56.002;37.208;2023-07-20T05:21:27;97785.17;;;16.16;68.57
75549;BME280;64133;56.002;37.208;2023-07-20T05:26:29;97788.04;;;16.27;68.11
75549;BME280;64133;56.002;37.208;2023-07-20T05:31:34;97795.17;;;16.71;67.23
75549;BME280;64133;56.002;37.208;2023-07-20T05:42:23;97796.77;;;16.89;65.35
75549;BME280;64133;56.002;37.208;2023-07-20T05:47:28;97788.39;;;17.41;64.85
75549;BME280;64133;56.002;37.208;2023-07-20T05:52:33;97798.77;;;17.33;64.43
75549;BME280;64133;56.002;37.208;2023-07-20T05:57:37;97800.14;;;17.07;64.35
75549;BME280;64133;56.002;37.208;2023-07-20T06:02:43;97791.90;;;17.35;63.70
75549;BME280;64133;56.002;37.208;2023-07-20T06:13:08;97819.72;;;17.59;61.34
75549;BME280;64133;56.002;37.208;2023-07-20T06:18:13;97804.97;;;17.99;61.04
75549;BME280;64133;56.002;37.208;2023-07-20T06:23:18;97798.44;;;17.88;61.03
75549;BME280;64133;56.002;37.208;2023-07-20T06:28:22;97796.67;;;18.20;60.24
75549;BME280;64133;56.002;37.208;2023-07-20T06:33:27;97793.28;;;18.38;59.78
75549;BME280;64133;56.002;37.208;2023-07-20T06:38:32;97797.92;;;18.65;58.24
75549;BME280;64133;56.002;37.208;2023-07-20T06:43:37;97811.60;;;18.44;57.59
75549;BME280;64133;56.002;37.208;2023-07-20T06:48:41;97796.30;;;18.80;56.64
75549;BME280;64133;56.002;37.208;2023-07-20T06:53:46;97794.94;;;18.71;55.82
75549;BME280;64133;56.002;37.208;2023-07-20T06:58:51;97797.47;;;18.91;55.82
75549;BME280;64133;56.002;37.208;2023-07-20T07:03:56;97794.32;;;19.09;54.48
75549;BME280;64133;56.002;37.208;2023-07-20T07:09:01;97799.41;;;19.02;54.18
75549;BME280;64133;56.002;37.208;2023-07-20T07:14:05;97799.41;;;19.02;53.97
75549;BME280;64133;56.002;37.208;2023-07-20T07:19:10;97803.35;;;18.52;54.47
75549;BME280;64133;56.002;37.208;2023-07-20T07:24:15;97809.27;;;19.26;53.18
75549;BME280;64133;56.002;37.208;2023-07-20T07:29:23;97807.41;;;19.61;52.00
75549;BME280;64133;56.002;37.208;2023-07-20T07:34:27;97810.40;;;19.90;51.76
75549;BME280;64133;56.002;37.208;2023-07-20T07:39:31;97816.30;;;19.55;48.67
75549;BME280;64133;56.002;37.208;2023-07-20T07:44:36;97810.44;;;20.01;50.30
75549;BME280;64133;56.002;37.208;2023-07-20T07:49:41;97823.13;;;20.15;49.27
75549;BME280;64133;56.002;37.208;2023-07-20T07:54:49;97816.77;;;19.70;48.00
75549;BME280;64133;56.002;37.208;2023-07-20T08:05:33;97810.64;;;20.18;46.33
75549;BME280;64133;56.002;37.208;2023-07-20T08:10:40;97812.09;;;19.75;48.88
75549;BME280;64133;56.002;37.208;2023-07-20T08:15:45;97818.83;;;19.59;49.75
75549;BME280;64133;56.002;37.208;2023-07-20T08:20:49;97819.14;;;19.01;50.62
75549;BME280;64133;56.002;37.208;2023-07-20T08:25:54;97827.91;;;19.33;49.59
75549;BME280;64133;56.002;37.208;2023-07-20T08:30:59;97825.81;;;19.01;50.29
75549;BME280;64133;56.002;37.208;2023-07-20T08:36:04;97824.58;;;20.39;48.17
75549;BME280;64133;56.002;37.208;2023-07-20T08:41:09;97836.61;;;19.90;49.38
75549;BME280;64133;56.002;37.208;2023-07-20T08:46:14;97835.28;;;19.56;50.20
75549;BME280;64133;56.002;37.208;2023-07-20T08:51:19;97834.66;;;19.61;50.05
75549;BME280;64133;56.002;37.208;2023-07-20T09:01:38;97838.55;;;20.31;49.67
75549;BME280;64133;56.002;37.208;2023-07-20T09:06:43;97840.41;;;20.49;49.62
75549;BME280;64133;56.002;37.208;2023-07-20T09:11:48;97836.03;;;20.27;50.63
75549;BME280;64133;56.002;37.208;2023-07-20T09:16:55;97835.27;;;20.99;49.95
75549;BME280;64133;56.002;37.208;2023-07-20T09:21:59;97852.17;;;21.23;49.39
75549;BME280;64133;56.002;37.208;2023-07-20T09:27:25;97850.31;;;19.94;49.79
75549;BME280;64133;56.002;37.208;2023-07-20T09:32:42;97859.90;;;19.49;51.08
75549;BME280;64133;56.002;37.208;2023-07-20T09:37:51;97869.85;;;18.47;53.36
75549;BME280;64133;56.002;37.208;2023-07-20T09:42:59;97806.09;;;18.77;51.88
75549;BME280;64133;56.002;37.208;2023-07-20T09:48:09;97862.78;;;18.97;52.13
75549;BME280;64133;56.002;37.208;2023-07-20T09:53:13;97871.27;;;20.24;50.46
75549;BME280;64133;56.002;37.208;2023-07-20T09:58:18;97860.99;;;20.49;50.33
75549;BME280;64133;56.002;37.208;2023-07-20T10:03:25;97855.21;;;20.33;50.38
75549;BME280;64133;56.002;37.208;2023-07-20T10:08:30;97857.50;;;20.39;50.23
75549;BME280;64133;56.002;37.208;2023-07-20T10:13:36;97852.41;;;21.21;49.68
75549;BME280;64133;56.002;37.208;2023-07-20T10:18:45;97846.44;;;21.64;49.23
75549;BME280;64133;56.002;37.208;2023-07-20T10:23:47;97842.02;;;21.57;49.43
75549;BME280;64133;56.002;37.208;2023-07-20T10:28:52;97840.33;;;21.54;48.47
75549;BME280;64133;56.002;37.208;2023-07-20T10:33:57;97848.83;;;21.63;48.91
75549;BME280;64133;56.002;37.208;2023-07-20T10:39:04;97822.77;;;22.36;47.59
75549;BME280;64133;56.002;37.208;2023-07-20T10:44:08;97831.59;;;22.08;47.52
75549;BME280;64133;56.002;37.208;2023-07-20T10:49:17;97840.36;;;21.92;46.83
75549;BME280;64133;56.002;37.208;2023-07-20T11:01:19;97840.48;;;21.26;45.39
75549;BME280;64133;56.002;37.208;2023-07-20T11:12:21;97844.80;;;20.74;48.20
75549;BME280;64133;56.002;37.208;2023-07-20T11:17:33;97852.77;;;20.14;49.55
75549;BME280;64133;56.002;37.208;2023-07-20T11:22:38;97848.92;;;19.73;50.57
75549;BME280;64133;56.002;37.208;2023-07-20T11:27:47;97869.09;;;19.19;52.44
75549;BME280;64133;56.002;37.208;2023-07-20T11:33:09;97870.12;;;18.77;54.24
75549;BME280;64133;56.002;37.208;2023-07-20T11:38:15;97887.52;;;18.64;55.33
75549;BME280;64133;56.002;37.208;2023-07-20T11:43:19;97936.69;;;16.77;61.52
75549;BME280;64133;56.002;37.208;2023-07-20T11:48:25;97921.78;;;16.65;62.71
75549;BME280;64133;56.002;37.208;2023-07-20T11:53:29;97911.67;;;17.15;62.65
75549;BME280;64133;56.002;37.208;2023-07-20T11:58:37;97915.48;;;17.56;62.14
75549;BME280;64133;56.002;37.208;2023-07-20T12:03:43;97908.86;;;18.12;60.92
75549;BME280;64133;56.002;37.208;2023-07-20T12:08:50;97897.80;;;18.38;60.00
75549;BME280;64133;56.002;37.208;2023-07-20T12:13:57;97883.25;;;19.19;59.02
75549;BME280;64133;56.002;37.208;2023-07-20T12:19:04;97889.73;;;19.80;57.87
75549;BME280;64133;56.002;37.208;2023-07-20T12:24:10;97887.13;;;19.64;57.95
75549;BME280;64133;56.002;37.208;2023-07-20T12:29:15;97883.38;;;19.90;57.43
75549;BME280;64133;56.002;37.208;2023-07-20T12:34:19;97895.94;;;19.99;56.84
75549;BME280;64133;56.002;37.208;2023-07-20T12:39:24;97892.39;;;19.62;56.70
75549;BME280;64133;56.002;37.208;2023-07-20T12:44:29;97899.77;;;19.94;55.16
75549;BME280;64133;56.002;37.208;2023-07-20T12:49:34;97902.62;;;20.08;54.35
75549;BME280;64133;56.002;37.208;2023-07-20T12:54:38;97888.95;;;20.16;53.06
75549;BME280;64133;56.002;37.208;2023-07-20T12:59:43;97895.23;;;19.10;54.65
75549;BME280;64133;56.002;37.208;2023-07-20T13:04:48;97904.53;;;18.40;56.26
75549;BME280;64133;56.002;37.208;2023-07-20T13:09:53;97964.34;;;17.46;60.58
75549;BME280;64133;56.002;37.208;2023-07-20T13:14:58;97923.10;;;16.34;64.85
75549;BME280;64133;56.002;37.208;2023-07-20T13:20:13;97928.45;;;17.09;64.27
75549;BME280;64133;56.002;37.208;2023-07-20T13:25:24;97928.40;;;17.46;62.98
75549;BME280;64133;56.002;37.208;2023-07-20T13:30:24;97927.98;;;17.43;63.85
75549;BME280;64133;56.002;37.208;2023-07-20T13:35:32;97919.46;;;17.37;64.63
75549;BME280;64133;56.002;37.208;2023-07-20T13:40:40;97917.33;;;17.43;65.37
75549;BME280;64133;56.002;37.208;2023-07-20T13:45:52;97909.94;;;17.58;65.27
75549;BME280;64133;56.002;37.208;2023-07-20T13:51:08;97910.66;;;17.49;65.37
75549;BME280;64133;56.002;37.208;2023-07-20T13:56:18;97909.74;;;17.26;65.87
75549;BME280;64133;56.002;37.208;2023-07-20T14:01:23;97913.12;;;17.18;66.50
75549;BME280;64133;56.002;37.208;2023-07-20T14:06:29;97904.20;;;17.15;66.49
75549;BME280;64133;56.002;37.208;2023-07-20T14:11:33;97900.74;;;17.34;66.23
75549;BME280;64133;56.002;37.208;2023-07-20T14:16:38;97902.18;;;17.76;65.40
75549;BME280;64133;56.002;37.208;2023-07-20T14:21:43;97890.26;;;19.79;61.08
75549;BME280;64133;56.002;37.208;2023-07-20T14:26:48;97895.89;;;19.71;59.98
75549;BME280;64133;56.002;37.208;2023-07-20T14:31:52;97880.91;;;20.53;59.05
75549;BME280;64133;56.002;37.208;2023-07-20T14:36:58;97880.73;;;20.66;58.47
75549;BME280;64133;56.002;37.208;2023-07-20T14:42:03;97876.37;;;20.53;57.99
75549;BME280;64133;56.002;37.208;2023-07-20T14:47:08;97895.23;;;21.09;57.70
75549;BME280;64133;56.002;37.208;2023-07-20T14:52:13;97892.72;;;21.26;57.06
75549;BME280;64133;56.002;37.208;2023-07-20T14:57:18;97894.32;;;21.37;55.64
75549;BME280;64133;56.002;37.208;2023-07-20T15:02:23;97890.56;;;21.47;56.01
75549;BME280;64133;56.002;37.208;2023-07-20T15:07:28;97893.48;;;21.69;55.73
75549;BME280;64133;56.002;37.208;2023-07-20T15:12:35;97902.47;;;22.24;54.23
75549;BME280;64133;56.002;37.208;2023-07-20T15:17:42;97896.44;;;22.17;54.97
75549;BME280;64133;56.002;37.208;2023-07-20T15:28:58;97898.47;;;22.93;54.39
75549;BME280;64133;56.002;37.208;2023-07-20T15:34:03;97914.78;;;23.20;45.54
75549;BME280;64133;56.002;37.208;2023-07-20T15:39:18;97907.25;;;23.67;50.20
75549;BME280;64133;56.002;37.208;2023-07-20T15:44:18;97907.25;;;24.03;48.73
75549;BME280;64133;56.002;37.208;2023-07-20T15:49:59;97906.61;;;24.81;47.74
75549;BME280;64133;56.002;37.208;2023-07-20T15:55:01;97905.33;;;25.16;44.97
75549;BME280;64133;56.002;37.208;2023-07-20T16:00:08;97910.37;;;26.67;42.79
75549;BME280;64133;56.002;37.208;2023-07-20T16:05:12;97902.67;;;27.83;39.31
75549;BME280;64133;56.002;37.208;2023-07-20T16:10:17;97908.34;;;28.71;33.25
75549;BME280;64133;56.002;37.208;2023-07-20T16:15:23;97903.87;;;28.93;35.19
75549;BME280;64133;56.002;37.208;2023-07-20T16:20:28;97912.42;;;29.52;34.02
75549;BME280;64133;56.002;37.208;2023-07-20T16:25:33;97926.08;;;30.03;32.98
75549;BME280;64133;56.002;37.208;2023-07-20T16:30:38;97914.34;;;29.84;32.42
75549;BME280;64133;56.002;37.208;2023-07-20T16:35:43;97929.78;;;30.17;31.70
75549;BME280;64133;56.002;37.208;2023-07-20T16:40:47;97930.29;;;30.19;31.00
75549;BME280;64133;56.002;37.208;2023-07-20T16:45:57;97913.16;;;28.07;32.74
75549;BME280;64133;56.002;37.208;2023-07-20T16:51:01;97936.60;;;21.79;41.94
75549;BME280;64133;56.002;37.208;2023-07-20T16:56:05;97944.06;;;20.36;44.86
75549;BME280;64133;56.002;37.208;2023-07-20T17:01:10;97943.06;;;19.93;45.85
75549;BME280;64133;56.002;37.208;2023-07-20T17:06:15;97940.95;;;19.52;47.02
75549;BME280;64133;56.002;37.208;2023-07-20T17:11:19;97949.13;;;19.16;47.70
75549;BME280;64133;56.002;37.208;2023-07-20T17:16:24;97953.66;;;18.77;48.59
75549;BME280;64133;56.002;37.208;2023-07-20T17:21:29;97949.12;;;18.49;49.33
75549;BME280;64133;56.002;37.208;2023-07-20T17:26:34;97959.98;;;18.18;50.36
75549;BME280;64133;56.002;37.208;2023-07-20T17:31:41;97967.30;;;18.07;50.71
75549;BME280;64133;56.002;37.208;2023-07-20T17:36:46;97967.19;;;17.71;51.71
75549;BME280;64133;56.002;37.208;2023-07-20T17:41:51;97970.88;;;17.44;52.39
75549;BME280;64133;56.002;37.208;2023-07-20T17:46:55;97979.38;;;17.43;52.91
75549;BME280;64133;56.002;37.208;2023-07-20T17:52:00;97975.17;;;17.45;53.15
75549;BME280;64133;56.002;37.208;2023-07-20T17:57:07;97975.80;;;17.33;53.47
75549;BME280;64133;56.002;37.208;2023-07-20T18:02:12;97974.35;;;17.24;54.12
75549;BME280;64133;56.002;37.208;2023-07-20T18:07:16;97973.52;;;17.17;54.43
75549;BME280;64133;56.002;37.208;2023-07-20T18:12:21;97973.52;;;17.17;54.92
75549;BME280;64133;56.002;37.208;2023-07-20T18:17:26;97978.11;;;17.13;55.41
75549;BME280;64133;56.002;37.208;2023-07-20T18:22:31;97976.20;;;16.93;55.92
75549;BME280;64133;56.002;37.208;2023-07-20T18:27:36;97982.94;;;16.82;56.35
75549;BME280;64133;56.002;37.208;2023-07-20T18:32:41;97976.91;;;16.67;56.55
75549;BME280;64133;56.002;37.208;2023-07-20T18:37:48;97966.22;;;16.54;56.43
75549;BME280;64133;56.002;37.208;2023-07-20T18:42:53;97959.98;;;16.51;56.67
75549;BME280;64133;56.002;37.208;2023-07-20T18:48:04;97961.52;;;16.32;57.04
75549;BME280;64133;56.002;37.208;2023-07-20T18:53:27;97958.53;;;16.24;57.45
75549;BME280;64133;56.002;37.208;2023-07-20T18:59:15;97952.30;;;16.28;57.51
75549;BME280;64133;56.002;37.208;2023-07-20T19:16:05;97958.05;;;15.97;58.88
75549;BME280;64133;56.002;37.208;2023-07-20T19:26:57;97958.02;;;15.90;58.49
75549;BME280;64133;56.002;37.208;2023-07-20T19:32:01;97954.86;;;15.80;58.27
75549;BME280;64133;56.002;37.208;2023-07-20T19:37:10;97955.62;;;15.67;58.62
75549;BME280;64133;56.002;37.208;2023-07-20T19:42:21;97957.19;;;15.72;58.50
75549;BME280;64133;56.002;37.208;2023-07-20T19:47:25;97951.84;;;15.62;58.77
75549;BME280;64133;56.002;37.208;2023-07-20T19:52:31;97947.31;;;15.55;58.91
75549;BME280;64133;56.002;37.208;2023-07-20T19:57:36;97954.87;;;15.41;59.29
75549;BME280;64133;56.002;37.208;2023-07-20T20:03:02;97951.77;;;15.38;59.39
75549;BME280;64133;56.002;37.208;2023-07-20T20:13:33;97957.59;;;15.37;59.67
75549;BME280;64133;56.002;37.208;2023-07-20T20:18:38;97966.80;;;15.30;59.37
75549;BME280;64133;56.002;37.208;2023-07-20T20:23:44;97976.04;;;15.24;59.60
75549;BME280;64133;56.002;37.208;2023-07-20T20:28:49;97972.29;;;15.18;59.86
75549;BME280;64133;56.002;37.208;2023-07-20T20:39:07;97977.36;;;15.24;60.28
75549;BME280;64133;56.002;37.208;2023-07-20T20:44:12;97981.38;;;15.09;60.44
75549;BME280;64133;56.002;37.208;2023-07-20T20:49:18;97953.06;;;14.84;60.66
75549;BME280;64133;56.002;37.208;2023-07-20T20:54:23;97988.84;;;14.99;60.92
75549;BME280;64133;56.002;37.208;2023-07-20T20:59:30;97987.37;;;14.86;61.22
75549;BME280;64133;56.002;37.208;2023-07-20T21:04:35;97986.04;;;14.86;61.20
75549;BME280;64133;56.002;37.208;2023-07-20T21:09:40;97990.69;;;14.83;61.31
75549;BME280;64133;56.002;37.208;2023-07-20T21:14:45;97995.02;;;14.85;61.49
75549;BME280;64133;56.002;37.208;2023-07-20T21:19:50;97983.70;;;14.87;61.24
75549;BME280;64133;56.002;37.208;2023-07-20T21:24:55;97987.94;;;14.92;61.12
75549;BME280;64133;56.002;37.208;2023-07-20T21:29:59;97990.33;;;14.87;61.23
75549;BME280;64133;56.002;37.208;2023-07-20T21:35:06;97994.47;;;14.74;61.48
75549;BME280;64133;56.002;37.208;2023-07-20T21:40:11;98007.82;;;14.66;61.84
75549;BME280;64133;56.002;37.208;2023-07-20T21:45:16;98006.21;;;14.50;62.45
75549;BME280;64133;56.002;37.208;2023-07-20T21:50:21;98010.80;;;14.38;62.95
75549;BME280;64133;56.002;37.208;2023-07-20T21:55:26;98011.20;;;14.30;63.30
75549;BME280;64133;56.002;37.208;2023-07-20T22:00:31;98012.84;;;14.17;63.78
75549;BME280;64133;56.002;37.208;2023-07-20T22:05:36;98018.87;;;14.11;64.09
75549;BME280;64133;56.002;37.208;2023-07-20T22:10:41;98014.02;;;14.14;64.17
75549;BME280;64133;56.002;37.208;2023-07-20T22:15:45;98009.50;;;14.04;64.69
75549;BME280;64133;56.002;37.208;2023-07-20T22:20:50;98012.84;;;14.02;64.90
75549;BME280;64133;56.002;37.208;2023-07-20T22:25:55;98016.94;;;14.04;64.66
75549;BME280;64133;56.002;37.208;2023-07-20T22:30:59;98018.87;;;13.92;64.96
75549;BME280;64133;56.002;37.208;2023-07-20T22:36:04;98018.67;;;13.78;65.46
75549;BME280;64133;56.002;37.208;2023-07-20T22:41:09;98018.61;;;13.68;65.62
75549;BME280;64133;56.002;37.208;2023-07-20T22:46:14;98015.34;;;13.62;66.13
75549;BME280;64133;56.002;37.208;2023-07-20T22:51:19;98024.31;;;13.56;66.28
75549;BME280;64133;56.002;37.208;2023-07-20T22:56:23;98013.64;;;13.50;66.43
75549;BME280;64133;56.002;37.208;2023-07-20T23:01:28;98016.94;;;13.48;66.68
75549;BME280;64133;56.002;37.208;2023-07-20T23:06:33;98018.77;;;13.47;66.70
75549;BME280;64133;56.002;37.208;2023-07-20T23:11:38;98015.49;;;13.45;66.84
75549;BME280;64133;56.002;37.208;2023-07-20T23:16:43;98013.19;;;13.42;66.95
75549;BME280;64133;56.002;37.208;2023-07-20T23:21:48;98015.05;;;13.38;67.06
75549;BME280;64133;56.002;37.208;2023-07-20T23:26:53;98008.33;;;13.27;67.44
75549;BME280;64133;56.002;37.208;2023-07-20T23:31:57;98008.01;;;13.22;67.67
75549;BME280;64133;56.002;37.208;2023-07-20T23:37:02;98010.84;;;13.24;67.75
75549;BME280;64133;56.002;37.208;2023-07-20T23:42:07;98008.20;;;13.20;67.98
75549;BME280;64133;56.002;37.208;2023-07-20T23:47:12;97997.51;;;13.09;68.24
75549;BME280;64133;56.002;37.208;2023-07-20T23:52:17;98001.03;;;13.06;68.39
75549;BME280;64133;56.002;37.208;2023-07-20T23:57:22;98003.87;;;12.96;68.86
